createdAt,value
2023-05-09T00:02:35.666Z,958.28
2023-05-09T00:07:37.421Z,958.21
2023-05-09T00:12:39.029Z,958.12
2023-05-09T00:17:40.259Z,958.03
2023-05-09T00:22:41.543Z,957.98
2023-05-09T00:27:43.046Z,958.04
2023-05-09T00:32:44.926Z,957.99
2023-05-09T00:37:46.714Z,957.95
2023-05-09T00:42:48.572Z,957.87
2023-05-09T00:47:49.911Z,957.85
2023-05-09T00:52:51.400Z,957.85
2023-05-09T00:57:53.384Z,957.82
2023-05-09T01:02:54.835Z,957.7
2023-05-09T01:07:56.825Z,957.73
2023-05-09T01:13:07.426Z,957.64
2023-05-09T01:28:03.080Z,957.61
2023-05-09T01:38:06.207Z,957.63
2023-05-09T02:08:15.466Z,957.43
2023-05-09T02:28:30.162Z,957.34
2023-05-09T05:39:24.850Z,957.01
2023-05-09T05:44:26.287Z,956.98
2023-05-09T05:49:27.796Z,956.92
2023-05-09T05:54:29.584Z,956.99
2023-05-09T05:59:31.189Z,956.97
2023-05-09T06:04:32.948Z,956.89
2023-05-09T06:09:34.210Z,956.88
2023-05-09T06:14:36.042Z,956.88
2023-05-09T06:19:37.832Z,956.84
2023-05-09T06:24:39.574Z,956.8
2023-05-09T06:29:40.996Z,956.74
2023-05-09T06:34:42.682Z,956.68
2023-05-09T06:39:44.181Z,956.69
2023-05-09T06:44:45.423Z,956.74
2023-05-09T06:49:46.718Z,956.73
2023-05-09T06:54:48.594Z,956.62
2023-05-09T06:59:50.402Z,956.61
2023-05-09T07:04:52.394Z,956.53
2023-05-09T07:10:11.014Z,956.44
2023-05-09T07:14:56.204Z,956.45
2023-05-09T07:19:58.315Z,956.43
2023-05-09T07:25:00.446Z,956.32
2023-05-09T07:30:02.332Z,956.22
2023-05-09T07:35:04.344Z,956.18
2023-05-09T07:40:06.159Z,956.22
2023-05-09T07:45:08.062Z,956.2
2023-05-09T07:50:09.649Z,956.09
2023-05-09T07:55:11.436Z,955.99
2023-05-09T08:00:13.582Z,955.97
2023-05-09T08:05:15.244Z,955.87
2023-05-09T08:10:17.039Z,955.81
2023-05-09T08:15:19.062Z,955.81
2023-05-09T08:20:20.741Z,955.7
2023-05-09T08:25:22.460Z,955.69
2023-05-09T08:30:24.247Z,955.62
2023-05-09T08:35:26.405Z,955.58
2023-05-09T08:40:28.519Z,955.55
2023-05-09T08:45:30.152Z,955.51
2023-05-09T08:50:32.141Z,955.56
2023-05-09T08:55:33.648Z,955.58
2023-05-09T09:00:34.887Z,955.51
2023-05-09T09:05:41.625Z,955.39
2023-05-09T09:10:38.247Z,955.29
2023-05-09T09:10:44.591Z,955.31
2023-05-09T09:15:45.994Z,955.23
2023-05-09T09:20:47.673Z,955.12
2023-05-09T09:25:49.672Z,954.97
2023-05-09T09:30:51.731Z,954.85
2023-05-09T09:35:53.517Z,954.84
2023-05-09T09:40:55.677Z,954.79
2023-05-09T09:45:56.998Z,954.73
2023-05-09T09:50:58.168Z,954.58
2023-05-09T09:56:08.935Z,954.48
2023-05-09T10:01:01.376Z,954.52
2023-05-09T10:06:10.617Z,954.54
2023-05-09T10:11:04.669Z,954.48
2023-05-09T10:16:07.731Z,954.45
2023-05-09T10:21:08.428Z,954.37
2023-05-09T10:26:10.097Z,954.3
2023-05-09T10:31:12.188Z,954.19
2023-05-09T10:36:13.533Z,954.15
2023-05-09T10:41:15.142Z,954.04
2023-05-09T10:46:17.308Z,953.96
2023-05-09T10:51:27.178Z,953.81
2023-05-09T10:56:21.284Z,953.77
2023-05-09T11:01:23.110Z,953.69
2023-05-09T11:06:24.479Z,953.62
2023-05-09T11:11:25.748Z,953.51
2023-05-09T11:16:27.504Z,953.45
2023-05-09T11:21:29.540Z,953.43
2023-05-09T11:26:30.882Z,953.3
2023-05-09T11:31:32.954Z,953.17
2023-05-09T11:36:35.100Z,953.17
2023-05-09T11:41:36.993Z,953
2023-05-09T11:46:38.785Z,952.9
2023-05-09T11:51:40.539Z,952.78
2023-05-09T11:56:42.721Z,952.68
2023-05-09T12:01:44.257Z,952.55
2023-05-09T12:06:46.161Z,952.48
2023-05-09T12:11:49.348Z,952.35
2023-05-09T12:16:49.353Z,952.3
2023-05-09T12:21:50.866Z,952.24
2023-05-09T12:26:52.867Z,952.19
2023-05-09T12:31:54.245Z,952.08
2023-05-09T12:36:55.484Z,951.98
2023-05-09T12:42:01.414Z,951.92
2023-05-09T12:46:58.262Z,951.85
2023-05-09T12:52:01.155Z,951.71
2023-05-09T12:57:02.265Z,951.61
2023-05-09T13:02:04.208Z,951.6
2023-05-09T13:07:06.280Z,951.56
2023-05-09T13:12:08.297Z,951.46
2023-05-09T13:17:10.317Z,951.38
2023-05-09T13:22:12.485Z,951.26
2023-05-09T13:27:14.074Z,951.18
2023-05-09T13:32:15.660Z,951.11
2023-05-09T13:37:17.797Z,951.05
2023-05-09T13:42:19.393Z,950.95
2023-05-09T13:47:21.346Z,950.85
2023-05-09T13:52:22.564Z,950.78
2023-05-09T13:57:24.452Z,950.72
2023-05-09T14:02:26.638Z,950.64
2023-05-09T14:07:28.508Z,950.63
2023-05-09T14:12:30.107Z,950.5
2023-05-09T14:17:31.840Z,950.4
2023-05-09T14:22:33.029Z,950.31
2023-05-09T14:27:35.075Z,950.29
2023-05-09T14:32:37.169Z,950.18
2023-05-09T14:37:39.055Z,950.12
2023-05-09T14:42:40.702Z,950.02
2023-05-09T14:47:42.840Z,949.95
2023-05-09T14:52:44.744Z,949.87
2023-05-09T14:57:46.867Z,949.92
2023-05-09T15:02:48.523Z,949.9
2023-05-09T15:07:49.784Z,949.84
2023-05-09T15:12:51.525Z,949.71
2023-05-09T15:17:53.086Z,949.68
2023-05-09T15:22:54.961Z,949.65
2023-05-09T15:27:56.296Z,949.52
2023-05-09T15:32:57.822Z,949.54
2023-05-09T15:37:59.963Z,949.57
2023-05-09T15:43:01.531Z,949.49
2023-05-09T15:48:03.186Z,949.35
2023-05-09T15:53:04.859Z,949.34
2023-05-09T15:58:06.806Z,949.31
2023-05-09T16:03:08.461Z,949.23
2023-05-09T16:08:09.676Z,949.22
2023-05-09T16:13:11.870Z,949.29
2023-05-09T16:18:13.735Z,949.21
2023-05-09T16:23:15.008Z,949.18
2023-05-09T16:28:16.518Z,949.11
2023-05-09T16:33:18.638Z,949.06
2023-05-09T16:38:20.368Z,948.97
2023-05-09T16:48:24.115Z,948.85
2023-05-09T16:53:27.646Z,948.8
2023-05-09T17:28:36.604Z,948.66
2023-05-09T17:33:37.802Z,948.58
2023-05-09T17:38:39.453Z,948.54
2023-05-09T17:43:41.211Z,948.43
2023-05-09T17:48:42.830Z,948.3
2023-05-09T17:53:44.842Z,948.24
2023-05-09T17:58:46.637Z,948.25
2023-05-09T18:03:47.990Z,948.14
2023-05-09T18:08:49.777Z,948.02
2023-05-09T18:13:51.409Z,948
2023-05-09T18:18:53.296Z,947.92
2023-05-09T18:23:55.027Z,947.97
2023-05-09T18:28:56.392Z,947.98
2023-05-09T18:33:58.247Z,947.94
2023-05-09T18:39:00.054Z,947.97
2023-05-09T18:44:01.477Z,947.99
2023-05-09T18:49:03.313Z,947.98
2023-05-09T18:54:05.254Z,947.95
2023-05-09T18:59:07.473Z,947.89
2023-05-09T19:04:09.632Z,947.9
2023-05-09T19:09:11.338Z,947.79
2023-05-09T19:14:12.949Z,947.76
2023-05-09T19:19:14.971Z,947.72
2023-05-09T19:24:16.411Z,947.67
2023-05-09T19:29:18.485Z,947.67
2023-05-09T19:34:19.925Z,947.72
2023-05-09T19:39:21.288Z,947.76
2023-05-09T19:44:23.178Z,947.78
2023-05-09T19:49:25.248Z,947.73
2023-05-09T19:54:27.349Z,947.72
2023-05-09T19:59:29.288Z,947.69
2023-05-09T20:04:30.781Z,947.64
2023-05-09T20:09:32.307Z,947.69
2023-05-09T20:14:34.167Z,947.67
2023-05-09T20:19:36.022Z,947.65
2023-05-09T20:24:37.725Z,947.65
2023-05-09T20:29:39.613Z,947.65
2023-05-09T20:34:41.249Z,947.61
2023-05-09T20:39:43.025Z,947.58
2023-05-09T20:44:45.163Z,947.56
2023-05-09T20:49:46.407Z,947.54
2023-05-09T20:54:48.079Z,947.47
2023-05-09T20:59:50.213Z,947.41
2023-05-09T21:04:52.186Z,947.45
2023-05-09T21:09:54.215Z,947.48
2023-05-09T21:14:55.605Z,947.5
2023-05-09T21:19:57.746Z,947.47
2023-05-09T21:24:59.172Z,947.43
2023-05-09T21:30:01.309Z,947.48
2023-05-09T21:35:03.201Z,947.52
2023-05-09T21:40:05.865Z,947.58
2023-05-09T21:45:06.915Z,948.2
2023-05-09T21:50:08.208Z,949
2023-05-09T21:55:09.934Z,948.89
2023-05-09T22:00:11.368Z,948.75
2023-05-09T22:05:12.582Z,948.79
2023-05-09T22:10:14.222Z,948.64
2023-05-09T22:15:15.699Z,948.59
2023-05-09T22:20:17.750Z,948.6
2023-05-09T22:25:18.736Z,948.59
2023-05-09T22:30:20.782Z,948.63
2023-05-09T22:35:22.564Z,948.65
2023-05-09T22:40:24.604Z,948.73
2023-05-09T22:45:26.419Z,948.74
2023-05-09T22:50:28.486Z,948.79
2023-05-09T22:55:30.573Z,948.77
2023-05-09T23:00:32.484Z,948.74
2023-05-09T23:05:34.174Z,948.74
2023-05-09T23:10:35.512Z,948.79
2023-05-09T23:15:37.324Z,948.8
2023-05-09T23:20:39.217Z,948.75
2023-05-09T23:25:41.002Z,948.74
2023-05-09T23:30:42.898Z,948.78
2023-05-09T23:35:44.081Z,948.81
2023-05-09T23:40:45.603Z,948.79
2023-05-09T23:45:47.422Z,948.74
2023-05-09T23:50:49.306Z,948.71
2023-05-09T23:55:51.124Z,948.69
